Time;durP1;ratioP1;P1;durP2;ratioP2;P2;SDS_P1;SDS_P2;PMS_P1;PMS_P2;Temp;Humidity;BMP_temperature;BMP_pressure;BME280_temperature;BME280_humidity;BME280_pressure;Samples;Min_cycle;Max_cycle;Signal;HPM_P1;HPM_P2
2022/11/13 00:00:55;;;;;;;;;;;11.90;99.90;;;;;;5096997;28;19908;-74
2022/11/13 00:03:21;;;;;;;;;;;11.90;99.90;;;;;;5096907;28;19918;-75
2022/11/13 00:05:46;;;;;;;;;;;11.90;99.90;;;;;;5097481;28;20385;-75
2022/11/13 00:08:12;;;;;;;;;;;11.90;99.90;;;;;;5097140;28;19953;-74
2022/11/13 00:10:37;;;;;;;;;;;11.90;99.90;;;;;;5097172;28;19912;-75
2022/11/13 00:13:03;;;;;;;;;;;11.90;99.90;;;;;;5096768;28;19915;-74
2022/11/13 00:15:28;;;;;;;;;;;11.90;99.90;;;;;;5096746;28;19947;-74
2022/11/13 00:17:54;;;;;;;;;;;11.90;99.90;;;;;;5097034;28;20003;-76
2022/11/13 00:20:19;;;;;;;;;;;11.90;99.90;;;;;;5096661;28;20345;-75
2022/11/13 00:22:46;;;;;;;;;;;11.80;99.90;;;;;;5096503;28;19912;-75
2022/11/13 00:25:11;;;;;;;;;;;11.80;99.90;;;;;;5096822;28;19908;-75
2022/11/13 00:27:37;;;;;;;;;;;11.80;99.90;;;;;;5096486;28;20395;-76
2022/11/13 00:30:03;;;;;;;;;;;11.90;99.90;;;;;;5078338;28;19908;-75
2022/11/13 00:32:29;;;;;;;;;;;11.90;99.90;;;;;;5096691;28;19915;-75
2022/11/13 00:34:54;;;;;;;;;;;12.00;99.90;;;;;;5096661;28;19909;-74
2022/11/13 00:37:20;;;;;;;;;;;12.00;99.90;;;;;;5096334;28;19953;-75
2022/11/13 00:39:45;;;;;;;;;;;12.00;99.90;;;;;;5078150;28;19912;-76
2022/11/13 00:42:11;;;;;;;;;;;12.00;99.90;;;;;;5096141;28;20419;-75
2022/11/13 00:44:37;;;;;;;;;;;12.00;99.90;;;;;;5077131;28;19912;-75
2022/11/13 00:47:02;;;;;;;;;;;12.10;99.90;;;;;;5096150;28;20366;-76
2022/11/13 00:49:28;;;;;;;;;;;12.00;99.90;;;;;;5096100;28;19908;-75
2022/11/13 00:51:53;;;;;;;;;;;12.10;99.90;;;;;;5095863;28;19947;-75
2022/11/13 00:54:19;;;;;;;;;;;12.00;99.90;;;;;;5096530;28;19934;-76
2022/11/13 00:56:44;;;;;;;;;;;12.00;99.90;;;;;;5096254;28;19908;-76
2022/11/13 00:59:10;;;;;;;;;;;12.00;99.90;;;;;;5095951;28;19961;-75
2022/11/13 01:01:35;;;;;;;;;;;12.00;99.90;;;;;;5095911;28;19957;-75
2022/11/13 01:04:01;;;;;;;;;;;12.00;99.90;;;;;;5096031;28;19911;-75
2022/11/13 01:06:27;;;;;;;;;;;11.90;99.90;;;;;;5095781;28;20293;-75
2022/11/13 01:08:53;;;;;;;;;;;11.80;99.90;;;;;;5095888;28;19909;-76
2022/11/13 01:11:19;;;;;;;;;;;11.80;99.90;;;;;;5096249;28;19939;-75
2022/11/13 01:13:46;;;;;;;;;;;11.70;99.90;;;;;;5077435;28;19908;-75
2022/11/13 01:16:12;;;;;;;;;;;11.70;99.90;;;;;;5095514;28;19908;-76
2022/11/13 01:18:38;;;;;;;;;;;11.60;99.90;;;;;;5096101;28;20361;-75
2022/11/13 01:21:30;;;;;;;;;;;11.60;99.90;;;;;;5095766;28;19908;-75
2022/11/13 01:23:55;;;;;;;;;;;11.60;99.90;;;;;;5090700;28;20006;-75
2022/11/13 01:26:23;;;;;;;;;;;11.60;99.90;;;;;;5095632;28;20408;-75
2022/11/13 01:28:49;;;;;;;;;;;11.60;99.90;;;;;;5095583;28;19995;-75
2022/11/13 01:31:16;;;;;;;;;;;11.60;99.90;;;;;;5095302;28;20365;-75
2022/11/13 01:33:42;;;;;;;;;;;11.60;99.90;;;;;;5095257;28;19915;-75
2022/11/13 01:36:10;;;;;;;;;;;11.60;99.90;;;;;;5095143;28;19912;-76
2022/11/13 01:38:36;;;;;;;;;;;11.70;99.90;;;;;;5095127;28;20401;-75
2022/11/13 01:41:01;;;;;;;;;;;11.80;99.90;;;;;;5095633;28;19934;-75
2022/11/13 01:43:28;;;;;;;;;;;11.80;99.90;;;;;;5094863;28;19913;-75
2022/11/13 01:45:57;;;;;;;;;;;11.80;99.90;;;;;;5095000;28;19916;-74
2022/11/13 01:48:23;;;;;;;;;;;11.70;99.90;;;;;;5094937;28;20000;-74
2022/11/13 01:50:48;;;;;;;;;;;11.60;99.90;;;;;;5094719;28;19930;-75
2022/11/13 01:53:14;;;;;;;;;;;11.50;99.90;;;;;;5095472;28;20350;-75
2022/11/13 01:55:39;;;;;;;;;;;11.50;99.90;;;;;;5095220;28;19915;-75
2022/11/13 01:58:06;;;;;;;;;;;11.60;99.90;;;;;;5094774;28;19940;-76
2022/11/13 02:00:32;;;;;;;;;;;11.70;99.90;;;;;;5094959;28;19908;-74
2022/11/13 02:02:57;;;;;;;;;;;11.60;99.90;;;;;;5094584;28;19913;-75
2022/11/13 02:05:23;;;;;;;;;;;11.60;99.90;;;;;;5094626;28;19908;-76
2022/11/13 02:07:48;;;;;;;;;;;11.60;99.90;;;;;;5094303;28;19908;-75
2022/11/13 02:10:14;;;;;;;;;;;11.60;99.90;;;;;;5076474;28;19909;-75
2022/11/13 02:12:45;;;;;;;;;;;11.60;99.90;;;;;;5095090;28;19942;-75
2022/11/13 02:15:11;;;;;;;;;;;11.60;99.90;;;;;;5094453;28;19908;-76
2022/11/13 02:17:40;;;;;;;;;;;11.60;99.90;;;;;;5094372;28;19963;-75
2022/11/13 02:20:06;;;;;;;;;;;11.50;99.90;;;;;;5094374;28;19912;-74
2022/11/13 02:22:44;;;;;;;;;;;11.50;99.90;;;;;;5094294;28;20045;-75
2022/11/13 02:25:10;;;;;;;;;;;11.40;99.90;;;;;;5094854;28;19912;-75
2022/11/13 02:27:38;;;;;;;;;;;11.30;99.90;;;;;;5094243;28;20354;-76
2022/11/13 02:30:33;;;;;;;;;;;11.20;99.90;;;;;;5094189;28;19916;-75
2022/11/13 02:32:59;;;;;;;;;;;11.10;99.90;;;;;;5072552;28;19973;-75
2022/11/13 02:35:35;;;;;;;;;;;11.00;99.90;;;;;;5094676;28;20346;-75
2022/11/13 02:38:02;;;;;;;;;;;11.00;99.90;;;;;;5094118;28;19908;-76
2022/11/13 02:40:28;;;;;;;;;;;11.00;99.90;;;;;;5075909;28;19908;-75
2022/11/13 02:42:54;;;;;;;;;;;10.90;99.90;;;;;;5094108;28;20371;-76
2022/11/13 02:45:19;;;;;;;;;;;10.90;99.90;;;;;;5093986;28;19916;-76
2022/11/13 02:47:45;;;;;;;;;;;11.00;99.90;;;;;;5093978;28;19908;-75
2022/11/13 02:50:11;;;;;;;;;;;11.10;99.90;;;;;;5094461;28;19908;-76
2022/11/13 02:52:37;;;;;;;;;;;11.10;99.90;;;;;;5093523;28;19963;-75
2022/11/13 02:55:03;;;;;;;;;;;11.10;99.90;;;;;;5094431;28;19915;-75
2022/11/13 02:57:28;;;;;;;;;;;11.20;99.90;;;;;;5093791;28;19908;-76
2022/11/13 02:59:54;;;;;;;;;;;11.20;99.90;;;;;;5093850;28;19958;-74
2022/11/13 03:02:19;;;;;;;;;;;11.20;99.90;;;;;;5093997;28;19908;-75
2022/11/13 03:04:45;;;;;;;;;;;11.20;99.90;;;;;;5093758;28;20281;-75
2022/11/13 03:07:12;;;;;;;;;;;11.20;99.90;;;;;;5093514;28;20370;-75
2022/11/13 03:09:38;;;;;;;;;;;11.20;99.90;;;;;;5075602;28;20386;-75
2022/11/13 03:12:03;;;;;;;;;;;11.20;99.90;;;;;;5094238;28;19909;-75
2022/11/13 03:14:29;;;;;;;;;;;11.20;99.90;;;;;;5093924;28;19914;-75
2022/11/13 03:16:54;;;;;;;;;;;11.20;99.90;;;;;;5093685;28;19993;-76
2022/11/13 03:19:20;;;;;;;;;;;11.20;99.90;;;;;;5075561;28;19915;-75
2022/11/13 03:21:46;;;;;;;;;;;11.20;99.90;;;;;;5093875;28;19977;-75
2022/11/13 03:24:11;;;;;;;;;;;11.20;99.90;;;;;;5093495;28;19947;-75
2022/11/13 03:26:37;;;;;;;;;;;11.20;99.90;;;;;;5093816;28;20315;-75
2022/11/13 03:29:02;;;;;;;;;;;11.20;99.90;;;;;;5075414;28;19908;-75
2022/11/13 03:31:28;;;;;;;;;;;11.20;99.90;;;;;;5093489;28;20296;-75
2022/11/13 03:33:53;;;;;;;;;;;11.10;99.90;;;;;;5093997;28;20370;-75
2022/11/13 03:36:19;;;;;;;;;;;11.10;99.90;;;;;;5093462;28;19914;-75
2022/11/13 03:38:44;;;;;;;;;;;11.10;99.90;;;;;;5093703;28;20273;-74
2022/11/13 03:41:10;;;;;;;;;;;11.10;99.90;;;;;;5075287;28;19908;-75
2022/11/13 03:43:35;;;;;;;;;;;11.10;99.90;;;;;;5093334;28;19912;-75
2022/11/13 03:46:01;;;;;;;;;;;11.10;99.90;;;;;;5093906;28;20322;-75
2022/11/13 03:48:26;;;;;;;;;;;11.00;99.90;;;;;;5093329;28;19912;-75
2022/11/13 03:50:53;;;;;;;;;;;11.10;99.90;;;;;;5093086;28;19908;-74
2022/11/13 03:53:19;;;;;;;;;;;11.00;99.90;;;;;;5093886;28;19916;-75
2022/11/13 03:55:46;;;;;;;;;;;11.00;99.90;;;;;;5093754;28;19908;-75
2022/11/13 03:58:11;;;;;;;;;;;11.00;99.90;;;;;;5093306;28;19969;-75
2022/11/13 04:00:38;;;;;;;;;;;11.00;99.90;;;;;;5075159;28;19908;-75
2022/11/13 04:03:03;;;;;;;;;;;11.00;99.90;;;;;;5093704;28;19962;-75
2022/11/13 04:05:29;;;;;;;;;;;10.90;99.90;;;;;;5093212;28;19909;-74
2022/11/13 04:07:54;;;;;;;;;;;10.90;99.90;;;;;;5093738;28;19908;-76
2022/11/13 04:10:20;;;;;;;;;;;10.90;99.90;;;;;;5074988;28;19909;-74
2022/11/13 04:12:45;;;;;;;;;;;10.90;99.90;;;;;;5093683;28;19931;-75
2022/11/13 04:15:11;;;;;;;;;;;10.90;99.90;;;;;;5093117;28;19958;-75
2022/11/13 04:17:36;;;;;;;;;;;10.90;99.90;;;;;;5093076;28;19912;-75
2022/11/13 04:20:02;;;;;;;;;;;10.90;99.90;;;;;;5096738;28;19931;-75
2022/11/13 04:22:27;;;;;;;;;;;10.90;99.90;;;;;;5096589;28;20297;-75
2022/11/13 04:24:53;;;;;;;;;;;10.90;99.90;;;;;;5097193;28;19993;-74
2022/11/13 04:27:18;;;;;;;;;;;10.90;99.90;;;;;;5096542;28;19908;-75
2022/11/13 04:29:44;;;;;;;;;;;10.80;99.90;;;;;;5097058;28;19908;-76
2022/11/13 04:32:09;;;;;;;;;;;10.90;99.90;;;;;;5096472;28;19908;-74
2022/11/13 04:34:35;;;;;;;;;;;10.90;99.90;;;;;;5096091;28;19923;-74
2022/11/13 04:37:00;;;;;;;;;;;10.80;99.90;;;;;;5096620;28;19908;-75
2022/11/13 04:39:27;;;;;;;;;;;10.90;99.90;;;;;;5096322;28;19916;-75
2022/11/13 04:44:36;;;;;;;;;;;10.90;99.90;;;;;;5096121;28;19923;-74
2022/11/13 04:47:02;;;;;;;;;;;10.90;99.90;;;;;;5096425;28;19916;-75
2022/11/13 04:49:27;;;;;;;;;;;10.90;99.90;;;;;;5096089;28;20022;-75
2022/11/13 04:51:53;;;;;;;;;;;10.90;99.90;;;;;;5095868;28;20415;-74
2022/11/13 04:54:19;;;;;;;;;;;10.80;99.90;;;;;;5077877;28;19908;-75
2022/11/13 04:56:44;;;;;;;;;;;10.80;99.90;;;;;;5096750;28;19954;-75
2022/11/13 04:59:09;;;;;;;;;;;10.70;99.90;;;;;;5095920;28;19909;-75
2022/11/13 05:01:35;;;;;;;;;;;10.80;99.90;;;;;;5095964;28;19915;-74
2022/11/13 05:04:01;;;;;;;;;;;10.80;99.90;;;;;;5095720;28;19919;-75
2022/11/13 05:06:27;;;;;;;;;;;10.80;99.90;;;;;;5095823;28;19926;-75
2022/11/13 05:08:52;;;;;;;;;;;10.90;99.90;;;;;;5096029;28;19999;-74
2022/11/13 05:11:18;;;;;;;;;;;10.80;99.90;;;;;;5095691;28;20011;-75
2022/11/13 05:13:43;;;;;;;;;;;10.80;99.90;;;;;;5095937;28;20380;-75
2022/11/13 05:16:10;;;;;;;;;;;10.80;99.90;;;;;;5095625;28;19912;-74
2022/11/13 05:18:36;;;;;;;;;;;10.90;99.90;;;;;;5095564;28;20277;-74
2022/11/13 05:21:02;;;;;;;;;;;10.80;99.90;;;;;;5096096;28;19915;-75
2022/11/13 05:23:28;;;;;;;;;;;10.80;99.90;;;;;;5095391;28;20357;-75
2022/11/13 05:26:01;;;;;;;;;;;10.80;99.90;;;;;;5095702;28;20006;-75
2022/11/13 05:28:26;;;;;;;;;;;10.80;99.90;;;;;;5095634;28;19912;-75
2022/11/13 05:30:52;;;;;;;;;;;10.70;99.90;;;;;;5095507;28;19961;-75
2022/11/13 05:33:17;;;;;;;;;;;10.70;99.90;;;;;;5095269;28;19908;-75
2022/11/13 05:35:42;;;;;;;;;;;10.70;99.90;;;;;;5077054;28;20396;-75
2022/11/13 05:38:08;;;;;;;;;;;10.60;99.90;;;;;;5095761;28;19912;-75
2022/11/13 05:40:34;;;;;;;;;;;10.60;99.90;;;;;;5095110;28;19909;-76
2022/11/13 05:42:59;;;;;;;;;;;10.60;99.90;;;;;;5076799;28;19912;-75
2022/11/13 05:45:25;;;;;;;;;;;10.60;99.90;;;;;;5095304;28;19962;-75
2022/11/13 05:47:50;;;;;;;;;;;10.50;99.90;;;;;;5094960;28;19947;-75
2022/11/13 05:50:16;;;;;;;;;;;10.50;99.90;;;;;;5095272;28;19916;-75
2022/11/13 05:52:41;;;;;;;;;;;10.40;99.90;;;;;;5094522;28;19951;-75
2022/11/13 05:55:07;;;;;;;;;;;10.50;99.90;;;;;;5094887;28;19912;-76
2022/11/13 05:57:32;;;;;;;;;;;10.50;99.90;;;;;;5095081;28;19915;-75
2022/11/13 05:59:58;;;;;;;;;;;10.60;99.90;;;;;;5094767;28;19970;-75
2022/11/13 06:02:23;;;;;;;;;;;10.60;99.90;;;;;;5094737;28;19999;-75
2022/11/13 06:04:49;;;;;;;;;;;10.70;99.90;;;;;;5094966;28;20297;-75
2022/11/13 06:07:15;;;;;;;;;;;10.70;99.90;;;;;;5094649;28;19908;-75
2022/11/13 06:09:40;;;;;;;;;;;10.70;99.90;;;;;;5095188;28;19914;-75
2022/11/13 06:12:06;;;;;;;;;;;10.70;99.90;;;;;;5094565;28;20038;-75
2022/11/13 06:14:31;;;;;;;;;;;10.70;99.90;;;;;;5094821;28;20007;-75
2022/11/13 06:16:57;;;;;;;;;;;10.70;99.90;;;;;;5094468;28;20005;-75
2022/11/13 06:19:22;;;;;;;;;;;10.70;99.90;;;;;;5094694;28;20273;-75
2022/11/13 06:21:48;;;;;;;;;;;10.80;99.90;;;;;;5076167;28;19908;-76
2022/11/13 06:24:13;;;;;;;;;;;10.70;99.90;;;;;;5094258;28;19919;-74
2022/11/13 06:26:39;;;;;;;;;;;10.70;99.90;;;;;;5094572;28;19908;-75
2022/11/13 06:29:06;;;;;;;;;;;10.60;99.90;;;;;;5094271;28;19930;-75
2022/11/13 06:31:32;;;;;;;;;;;10.70;99.90;;;;;;5094289;28;19915;-74
2022/11/13 06:33:58;;;;;;;;;;;10.70;99.90;;;;;;5094466;28;19998;-74
2022/11/13 06:36:25;;;;;;;;;;;10.70;99.90;;;;;;5094149;28;19974;-75
2022/11/13 06:38:50;;;;;;;;;;;10.60;99.90;;;;;;5094365;28;19908;-74
2022/11/13 06:41:17;;;;;;;;;;;10.50;99.90;;;;;;5093881;28;19920;-75
2022/11/13 06:43:43;;;;;;;;;;;10.50;99.90;;;;;;5094061;28;20459;-76
2022/11/13 06:46:12;;;;;;;;;;;10.50;99.90;;;;;;5094537;28;19946;-75
2022/11/13 06:48:38;;;;;;;;;;;10.50;99.90;;;;;;5075874;28;19908;-75
2022/11/13 06:51:04;;;;;;;;;;;10.50;99.90;;;;;;5093983;28;20281;-76
2022/11/13 06:53:30;;;;;;;;;;;10.40;99.90;;;;;;5094204;28;19953;-75
2022/11/13 06:55:56;;;;;;;;;;;10.50;99.90;;;;;;5093828;28;19913;-75
2022/11/13 06:58:21;;;;;;;;;;;10.30;99.90;;;;;;5093833;28;19908;-75
2022/11/13 07:00:47;;;;;;;;;;;10.40;99.90;;;;;;5093836;28;19908;-75
2022/11/13 07:03:17;;;;;;;;;;;10.30;99.90;;;;;;5094017;28;19912;-75
2022/11/13 07:05:42;;;;;;;;;;;10.30;99.90;;;;;;5094041;28;19927;-74
2022/11/13 07:08:08;;;;;;;;;;;10.20;99.90;;;;;;5093652;28;19953;-76
2022/11/13 07:10:33;;;;;;;;;;;10.20;99.90;;;;;;5094242;28;19991;-75
2022/11/13 07:12:59;;;;;;;;;;;10.20;99.90;;;;;;5093974;28;19908;-75
2022/11/13 07:15:25;;;;;;;;;;;10.20;99.90;;;;;;5093672;28;20373;-75
2022/11/13 07:17:50;;;;;;;;;;;10.20;99.90;;;;;;5094191;28;19915;-76
2022/11/13 07:20:16;;;;;;;;;;;10.20;99.90;;;;;;5093608;28;19912;-75
2022/11/13 07:22:41;;;;;;;;;;;10.20;99.90;;;;;;5093814;28;19908;-76
2022/11/13 07:25:07;;;;;;;;;;;10.10;99.90;;;;;;5093547;28;19916;-75
2022/11/13 07:27:32;;;;;;;;;;;10.10;99.90;;;;;;5093550;28;19922;-74
2022/11/13 07:29:58;;;;;;;;;;;10.20;99.90;;;;;;5093513;28;19948;-75
2022/11/13 07:32:23;;;;;;;;;;;10.20;99.90;;;;;;5075321;28;20460;-75
2022/11/13 07:34:49;;;;;;;;;;;10.20;99.90;;;;;;5094054;28;19908;-74
2022/11/13 07:37:14;;;;;;;;;;;10.20;99.90;;;;;;5093486;28;19912;-75
2022/11/13 07:39:40;;;;;;;;;;;10.10;99.90;;;;;;5093988;28;20362;-75
2022/11/13 07:42:05;;;;;;;;;;;9.90;99.90;;;;;;5094220;28;19909;-75
2022/11/13 07:44:31;;;;;;;;;;;9.80;99.90;;;;;;5093303;28;19916;-76
2022/11/13 07:46:56;;;;;;;;;;;9.80;99.90;;;;;;5093448;28;19912;-76
2022/11/13 07:49:22;;;;;;;;;;;9.70;99.90;;;;;;5093405;28;19915;-75
2022/11/13 07:51:47;;;;;;;;;;;9.60;99.90;;;;;;5093310;28;19943;-74
2022/11/13 07:54:13;;;;;;;;;;;9.60;99.90;;;;;;5097258;28;19908;-75
2022/11/13 07:56:38;;;;;;;;;;;9.70;99.90;;;;;;5097162;28;19915;-75
2022/11/13 07:59:04;;;;;;;;;;;9.80;99.90;;;;;;5097739;28;19908;-76
2022/11/13 08:01:29;;;;;;;;;;;10.00;99.90;;;;;;5078868;28;20436;-76
2022/11/13 08:03:55;;;;;;;;;;;10.10;99.90;;;;;;5096934;28;20014;-75
2022/11/13 08:06:22;;;;;;;;;;;10.20;99.90;;;;;;5096987;28;19915;-75
2022/11/13 08:08:48;;;;;;;;;;;10.20;99.90;;;;;;5097211;28;20361;-75
2022/11/13 08:11:14;;;;;;;;;;;10.30;99.90;;;;;;5097203;28;19991;-76
2022/11/13 08:13:39;;;;;;;;;;;10.30;99.90;;;;;;5096885;28;20003;-75
2022/11/13 08:16:05;;;;;;;;;;;10.30;99.90;;;;;;5096771;28;19954;-74
2022/11/13 08:18:31;;;;;;;;;;;10.30;99.90;;;;;;5097005;28;19915;-76
2022/11/13 08:20:59;;;;;;;;;;;10.30;99.90;;;;;;5096699;28;19912;-74
2022/11/13 08:23:24;;;;;;;;;;;10.40;99.90;;;;;;5096607;28;20315;-76
2022/11/13 08:25:50;;;;;;;;;;;10.30;99.90;;;;;;5096589;28;19957;-75
2022/11/13 08:28:15;;;;;;;;;;;10.40;99.90;;;;;;5096579;28;19915;-75
2022/11/13 08:30:44;;;;;;;;;;;10.40;99.90;;;;;;5096765;28;19931;-74
2022/11/13 08:33:10;;;;;;;;;;;10.50;99.90;;;;;;5096424;28;20307;-74
2022/11/13 08:35:35;;;;;;;;;;;10.50;99.90;;;;;;5096992;28;19908;-75
2022/11/13 08:38:05;;;;;;;;;;;10.50;99.90;;;;;;5096606;28;20366;-74
2022/11/13 08:40:30;;;;;;;;;;;10.50;99.90;;;;;;5096643;28;19908;-74
2022/11/13 08:43:00;;;;;;;;;;;10.60;99.90;;;;;;5097016;28;20400;-75
2022/11/13 08:45:25;;;;;;;;;;;10.70;99.90;;;;;;5096231;28;19914;-75
2022/11/13 08:47:51;;;;;;;;;;;10.70;99.90;;;;;;5096194;28;20348;-75
2022/11/13 08:50:16;;;;;;;;;;;10.70;99.90;;;;;;5096463;28;19966;-74
2022/11/13 08:52:42;;;;;;;;;;;10.70;99.90;;;;;;5095667;28;19935;-75
2022/11/13 08:55:07;;;;;;;;;;;10.80;99.90;;;;;;5077869;28;19908;-75
2022/11/13 08:57:33;;;;;;;;;;;10.90;99.90;;;;;;5096552;28;19934;-75
2022/11/13 08:59:58;;;;;;;;;;;11.10;99.90;;;;;;5095933;28;19908;-75
2022/11/13 09:02:24;;;;;;;;;;;11.50;99.90;;;;;;5095885;28;19908;-75
2022/11/13 09:04:49;;;;;;;;;;;12.00;99.90;;;;;;5095524;28;19912;-75
2022/11/13 09:07:15;;;;;;;;;;;12.20;99.90;;;;;;5096091;28;19909;-74
2022/11/13 09:09:41;;;;;;;;;;;12.40;99.90;;;;;;5096099;28;19916;-75
2022/11/13 09:12:06;;;;;;;;;;;12.60;99.90;;;;;;5077605;28;20339;-75
2022/11/13 09:14:32;;;;;;;;;;;12.70;99.90;;;;;;5095689;28;19909;-75
2022/11/13 09:16:57;;;;;;;;;;;12.90;99.90;;;;;;5095608;28;19909;-75
2022/11/13 09:19:23;;;;;;;;;;;12.80;99.90;;;;;;5095574;28;20300;-75
2022/11/13 09:21:50;;;;;;;;;;;12.90;99.90;;;;;;5095775;28;19908;-75
2022/11/13 09:24:15;;;;;;;;;;;13.00;99.90;;;;;;5094177;28;19916;-75
2022/11/13 09:26:41;;;;;;;;;;;13.20;99.90;;;;;;5095764;28;19915;-75
2022/11/13 09:29:09;;;;;;;;;;;13.20;99.90;;;;;;5095407;28;19912;-75
2022/11/13 09:31:34;;;;;;;;;;;13.20;99.90;;;;;;5095651;28;19908;-76
2022/11/13 09:34:00;;;;;;;;;;;13.30;99.90;;;;;;5095293;28;19908;-75
2022/11/13 09:36:25;;;;;;;;;;;13.40;99.90;;;;;;5095545;28;19915;-75
2022/11/13 09:38:51;;;;;;;;;;;13.40;99.90;;;;;;5095238;28;20331;-76
2022/11/13 09:41:19;;;;;;;;;;;13.40;99.90;;;;;;5095423;28;19916;-75
2022/11/13 09:44:02;;;;;;;;;;;13.60;99.90;;;;;;5095481;28;19912;-75
2022/11/13 09:46:42;;;;;;;;;;;13.80;99.90;;;;;;5095367;28;19915;-75
2022/11/13 09:49:07;;;;;;;;;;;13.90;99.90;;;;;;5095275;28;20432;-75
2022/11/13 09:51:36;;;;;;;;;;;14.20;99.90;;;;;;5094951;28;20019;-75
2022/11/13 09:54:03;;;;;;;;;;;14.00;99.90;;;;;;5095224;28;19954;-76
2022/11/13 09:56:38;;;;;;;;;;;13.70;99.90;;;;;;5094847;28;19930;-75
2022/11/13 09:59:22;;;;;;;;;;;13.30;99.90;;;;;;5095139;28;19908;-74
2022/11/13 10:01:54;;;;;;;;;;;13.20;99.90;;;;;;5094793;28;19908;-75
2022/11/13 10:04:25;;;;;;;;;;;13.20;99.90;;;;;;5094941;28;19958;-75
2022/11/13 10:06:59;;;;;;;;;;;13.50;99.90;;;;;;5094992;28;19915;-76
2022/11/13 10:09:38;;;;;;;;;;;13.70;99.90;;;;;;5076134;28;20440;-75
2022/11/13 10:12:06;;;;;;;;;;;13.80;99.90;;;;;;5094936;28;20354;-76
2022/11/13 10:14:37;;;;;;;;;;;14.00;99.90;;;;;;5094791;28;19923;-74
2022/11/13 10:17:07;;;;;;;;;;;14.20;99.90;;;;;;5094429;28;19908;-75
2022/11/13 10:19:51;;;;;;;;;;;14.00;99.90;;;;;;5095024;28;20003;-74
2022/11/13 10:22:22;;;;;;;;;;;13.90;99.90;;;;;;5094394;28;19912;-74
2022/11/13 10:24:49;;;;;;;;;;;14.00;99.90;;;;;;5094232;28;19912;-75
2022/11/13 10:27:15;;;;;;;;;;;14.00;99.90;;;;;;5093921;28;19908;-75
2022/11/13 10:29:41;;;;;;;;;;;14.00;99.90;;;;;;5094245;28;20335;-74
2022/11/13 10:32:12;;;;;;;;;;;13.90;99.90;;;;;;5094212;28;19912;-75
2022/11/13 10:34:38;;;;;;;;;;;13.80;99.90;;;;;;5094474;28;19931;-75
2022/11/13 10:37:13;;;;;;;;;;;13.80;99.90;;;;;;5094097;28;20362;-76
2022/11/13 10:39:42;;;;;;;;;;;13.80;99.90;;;;;;5094025;28;20335;-76
2022/11/13 10:42:18;;;;;;;;;;;13.90;99.90;;;;;;5076382;28;19893;-75
2022/11/13 10:44:51;;;;;;;;;;;14.10;99.90;;;;;;5094118;28;20357;-75
2022/11/13 10:47:18;;;;;;;;;;;14.00;99.90;;;;;;5094266;28;19920;-75
2022/11/13 10:49:43;;;;;;;;;;;14.00;99.90;;;;;;5094014;28;19946;-75
2022/11/13 10:52:20;;;;;;;;;;;14.00;99.90;;;;;;5093669;28;19956;-75
2022/11/13 10:54:46;;;;;;;;;;;14.00;99.90;;;;;;5093868;28;19912;-75
2022/11/13 10:57:34;;;;;;;;;;;14.10;99.90;;;;;;5093172;28;20196;-75
2022/11/13 11:00:00;;;;;;;;;;;14.10;99.90;;;;;;5093407;28;19931;-75
2022/11/13 11:02:26;;;;;;;;;;;14.10;99.90;;;;;;5093787;28;19909;-76
2022/11/13 11:05:05;;;;;;;;;;;13.90;99.90;;;;;;5093944;28;19918;-75
2022/11/13 11:07:33;;;;;;;;;;;13.80;99.90;;;;;;5093944;28;19995;-76
2022/11/13 11:09:59;;;;;;;;;;;13.80;99.90;;;;;;5094286;28;20275;-76
2022/11/13 11:12:24;;;;;;;;;;;13.70;99.90;;;;;;5093674;28;19908;-76
2022/11/13 11:14:56;;;;;;;;;;;13.70;99.90;;;;;;5093651;28;19908;-75
2022/11/13 11:17:28;;;;;;;;;;;13.70;99.90;;;;;;5093926;28;19908;-75
2022/11/13 11:20:01;;;;;;;;;;;13.80;99.90;;;;;;5093642;28;20335;-75
2022/11/13 11:22:28;;;;;;;;;;;13.80;99.90;;;;;;5093910;28;19912;-75
2022/11/13 11:24:57;;;;;;;;;;;13.80;99.90;;;;;;5093304;28;19912;-75
2022/11/13 11:27:27;;;;;;;;;;;13.80;99.90;;;;;;5095241;28;19908;-75
2022/11/13 11:30:04;;;;;;;;;;;13.80;99.90;;;;;;5098048;28;19908;-74
2022/11/13 11:32:33;;;;;;;;;;;13.80;99.90;;;;;;5098020;28;19934;-75
2022/11/13 11:35:03;;;;;;;;;;;13.80;99.90;;;;;;5097785;28;20002;-75
2022/11/13 11:37:37;;;;;;;;;;;13.90;99.90;;;;;;5098445;28;19908;-75
2022/11/13 11:40:06;;;;;;;;;;;13.90;99.90;;;;;;5097500;28;19908;-75
2022/11/13 11:42:32;;;;;;;;;;;13.90;99.90;;;;;;5097932;28;20045;-76
2022/11/13 11:44:57;;;;;;;;;;;13.90;99.90;;;;;;5097360;28;20010;-75
2022/11/13 11:47:23;;;;;;;;;;;13.90;99.90;;;;;;5097674;28;19915;-75
2022/11/13 11:49:48;;;;;;;;;;;13.90;99.90;;;;;;5097356;28;19908;-76
2022/11/13 11:52:14;;;;;;;;;;;13.80;99.90;;;;;;5078893;28;19943;-76
2022/11/13 11:54:42;;;;;;;;;;;13.90;99.90;;;;;;5097846;28;19912;-76
2022/11/13 11:57:10;;;;;;;;;;;13.80;99.90;;;;;;5097209;28;19912;-74
2022/11/13 11:59:36;;;;;;;;;;;13.80;99.90;;;;;;5097716;28;19999;-76
2022/11/13 12:02:04;;;;;;;;;;;13.80;99.90;;;;;;5097108;28;20361;-74
2022/11/13 12:04:32;;;;;;;;;;;13.90;99.90;;;;;;5097269;28;19961;-75
2022/11/13 12:07:01;;;;;;;;;;;13.90;99.90;;;;;;5096999;28;20285;-75
2022/11/13 12:09:28;;;;;;;;;;;14.00;99.90;;;;;;5097251;28;19908;-76
2022/11/13 12:12:05;;;;;;;;;;;14.00;99.90;;;;;;5078637;28;19912;-75
2022/11/13 12:14:40;;;;;;;;;;;14.10;99.90;;;;;;5097456;28;19915;-76
2022/11/13 12:17:12;;;;;;;;;;;14.20;99.90;;;;;;5078370;28;19955;-76
2022/11/13 12:20:00;;;;;;;;;;;14.20;99.90;;;;;;5096735;28;19958;-76
2022/11/13 12:22:38;;;;;;;;;;;14.20;99.90;;;;;;5065248;28;19958;-76
2022/11/13 12:25:11;;;;;;;;;;;14.30;99.90;;;;;;5096594;28;19911;-75
2022/11/13 12:27:42;;;;;;;;;;;14.40;99.90;;;;;;5096932;28;19915;-75
2022/11/13 12:30:08;;;;;;;;;;;14.50;99.90;;;;;;5096517;28;20442;-76
2022/11/13 12:32:33;;;;;;;;;;;14.60;99.90;;;;;;5096507;28;19909;-75
2022/11/13 12:35:06;;;;;;;;;;;14.60;99.90;;;;;;5096695;28;19934;-76
2022/11/13 12:37:34;;;;;;;;;;;14.70;99.90;;;;;;5096357;28;20266;-76
2022/11/13 12:40:04;;;;;;;;;;;14.80;99.90;;;;;;5095103;28;19908;-76
2022/11/13 12:42:29;;;;;;;;;;;14.80;99.90;;;;;;5096681;28;19908;-76
2022/11/13 12:45:01;;;;;;;;;;;14.90;99.90;;;;;;5096733;28;19913;-75
2022/11/13 12:47:26;;;;;;;;;;;14.90;99.90;;;;;;5096181;28;20304;-75
2022/11/13 12:49:59;;;;;;;;;;;14.90;99.90;;;;;;5096732;28;19908;-75
2022/11/13 12:52:25;;;;;;;;;;;14.90;99.90;;;;;;5095706;28;20374;-75
2022/11/13 12:55:02;;;;;;;;;;;15.10;99.90;;;;;;5096096;28;19915;-75
2022/11/13 12:57:27;;;;;;;;;;;15.10;99.90;;;;;;5096339;28;20374;-75
2022/11/13 12:59:54;;;;;;;;;;;15.20;99.90;;;;;;5095969;28;19915;-74
2022/11/13 13:02:39;;;;;;;;;;;15.30;99.90;;;;;;5096210;28;19915;-76
2022/11/13 13:05:14;;;;;;;;;;;15.40;99.90;;;;;;5096144;28;19912;-76
2022/11/13 13:07:58;;;;;;;;;;;15.50;99.90;;;;;;5096133;28;19915;-75
2022/11/13 13:10:40;;;;;;;;;;;15.50;99.90;;;;;;5096002;28;19912;-76
2022/11/13 13:13:08;;;;;;;;;;;15.60;99.90;;;;;;5096074;28;19908;-75
2022/11/13 13:15:35;;;;;;;;;;;15.70;99.90;;;;;;5095666;28;20394;-75
2022/11/13 13:18:11;;;;;;;;;;;15.80;99.90;;;;;;5095636;28;19915;-75
2022/11/13 13:20:44;;;;;;;;;;;15.80;99.90;;;;;;5096203;28;20495;-75
2022/11/13 13:23:11;;;;;;;;;;;15.80;99.90;;;;;;5095420;28;19914;-75
2022/11/13 13:25:36;;;;;;;;;;;15.90;99.90;;;;;;5095642;28;20418;-75
2022/11/13 13:28:15;;;;;;;;;;;15.90;99.90;;;;;;5095722;28;19912;-75
2022/11/13 13:30:46;;;;;;;;;;;16.00;99.90;;;;;;5095448;28;19908;-75
2022/11/13 13:33:18;;;;;;;;;;;16.10;99.90;;;;;;5095305;28;19908;-75
2022/11/13 13:36:02;;;;;;;;;;;16.00;99.90;;;;;;5095840;28;20023;-76
2022/11/13 13:38:34;;;;;;;;;;;16.10;99.90;;;;;;5095200;28;19912;-76
2022/11/13 13:41:05;;;;;;;;;;;16.20;99.90;;;;;;5095392;28;19916;-76
2022/11/13 13:43:55;;;;;;;;;;;16.20;99.90;;;;;;5095466;28;19967;-75
2022/11/13 13:46:23;;;;;;;;;;;16.40;99.90;;;;;;5095410;28;20277;-76
2022/11/13 13:48:50;;;;;;;;;;;16.40;99.90;;;;;;5095308;28;19931;-75
2022/11/13 13:51:31;;;;;;;;;;;16.50;99.90;;;;;;5094501;28;20449;-75
2022/11/13 13:53:58;;;;;;;;;;;16.50;99.90;;;;;;5095038;28;19915;-75
2022/11/13 13:56:24;;;;;;;;;;;16.60;99.90;;;;;;5094856;28;20365;-75
2022/11/13 13:58:49;;;;;;;;;;;16.70;99.90;;;;;;5095376;28;19958;-75
2022/11/13 14:01:25;;;;;;;;;;;16.70;99.90;;;;;;5094784;28;19908;-76
2022/11/13 14:04:09;;;;;;;;;;;16.80;99.90;;;;;;5094947;28;19913;-76
2022/11/13 14:06:35;;;;;;;;;;;16.80;99.90;;;;;;5094679;28;19915;-75
2022/11/13 14:09:07;;;;;;;;;;;16.90;99.90;;;;;;5095272;28;19912;-76
2022/11/13 14:11:33;;;;;;;;;;;16.90;99.90;;;;;;5094622;28;19914;-76
2022/11/13 14:14:18;;;;;;;;;;;16.90;99.90;;;;;;5094566;28;20345;-75
2022/11/13 14:16:51;;;;;;;;;;;16.90;99.90;;;;;;5076865;28;19931;-75
2022/11/13 14:19:17;;;;;;;;;;;17.00;99.90;;;;;;5094466;28;20374;-75
2022/11/13 14:21:47;;;;;;;;;;;17.00;99.90;;;;;;5094379;28;19908;-75